createdAt,value
2019-03-28T00:00:13.814Z,10.33
2019-03-28T00:02:42.401Z,9.80
2019-03-28T00:05:30.297Z,8.40
2019-03-28T00:07:58.952Z,10.13
2019-03-28T00:10:27.561Z,10.67
2019-03-28T00:12:56.199Z,10.23
2019-03-28T00:15:24.785Z,11.23
2019-03-28T00:17:53.355Z,11.87
2019-03-28T00:20:22.017Z,10.90
2019-03-28T00:23:01.187Z,11.27
2019-03-28T00:25:29.712Z,10.03
2019-03-28T00:27:58.289Z,11.30
2019-03-28T00:30:26.890Z,10.83
2019-03-28T00:32:55.445Z,11.13
2019-03-28T00:35:26.214Z,10.90
2019-03-28T00:37:54.849Z,10.70
2019-03-28T00:40:23.433Z,10.70
2019-03-28T00:42:52.008Z,11.70
2019-03-28T00:45:20.602Z,10.60
2019-03-28T00:47:49.177Z,11.50
2019-03-28T00:50:18.155Z,11.43
2019-03-28T00:52:46.734Z,11.50
2019-03-28T00:55:15.460Z,11.90
2019-03-28T00:57:44.166Z,11.67
2019-03-28T01:00:13.348Z,12.13
2019-03-28T01:02:41.927Z,11.67
2019-03-28T01:05:10.721Z,12.00
2019-03-28T01:07:39.248Z,13.07
2019-03-28T01:10:08.879Z,13.30
2019-03-28T01:12:37.445Z,12.60
2019-03-28T01:15:08.109Z,12.40
2019-03-28T01:17:36.676Z,12.67
2019-03-28T01:20:07.256Z,13.67
2019-03-28T01:22:35.999Z,13.07
2019-03-28T01:25:05.166Z,12.73
2019-03-28T01:27:33.712Z,13.13
2019-03-28T01:30:02.303Z,13.47
2019-03-28T01:32:30.862Z,13.73
2019-03-28T01:34:59.473Z,13.13
2019-03-28T01:37:28.067Z,12.73
2019-03-28T01:39:56.644Z,12.97
2019-03-28T01:42:25.193Z,12.67
2019-03-28T01:44:53.709Z,12.90
2019-03-28T01:47:22.192Z,13.50
2019-03-28T01:49:50.691Z,12.43
2019-03-28T01:52:19.289Z,13.07
2019-03-28T01:54:47.894Z,12.27
2019-03-28T01:57:16.477Z,12.90
2019-03-28T01:59:45.078Z,12.73
2019-03-28T02:02:13.732Z,13.93
2019-03-28T02:04:42.402Z,13.07
2019-03-28T02:07:10.907Z,14.17
2019-03-28T02:09:39.484Z,13.60
2019-03-28T02:12:08.068Z,14.53
2019-03-28T02:14:36.631Z,14.03
2019-03-28T02:17:05.289Z,14.13
2019-03-28T02:19:33.878Z,14.63
2019-03-28T02:22:02.372Z,15.23
2019-03-28T02:24:30.909Z,14.13
2019-03-28T02:26:59.456Z,13.57
2019-03-28T02:29:28.024Z,14.13
2019-03-28T02:31:56.536Z,14.53
2019-03-28T02:34:25.169Z,13.30
2019-03-28T02:36:53.752Z,14.43
2019-03-28T02:39:22.328Z,13.67
2019-03-28T02:41:50.977Z,15.27
2019-03-28T02:44:19.555Z,15.17
2019-03-28T02:46:48.106Z,15.00
2019-03-28T02:49:16.618Z,14.90
2019-03-28T02:51:45.174Z,14.40
2019-03-28T02:54:14.014Z,15.17
2019-03-28T02:56:42.597Z,14.07
2019-03-28T02:59:11.126Z,13.73
2019-03-28T03:01:40.484Z,14.80
2019-03-28T03:04:09.412Z,14.30
2019-03-28T03:06:37.945Z,13.73
2019-03-28T03:09:09.524Z,13.07
2019-03-28T03:11:38.272Z,14.17
2019-03-28T03:14:06.834Z,13.50
2019-03-28T03:16:35.389Z,14.43
2019-03-28T03:19:04.063Z,13.23
2019-03-28T03:21:34.153Z,13.70
2019-03-28T03:24:02.724Z,12.90
2019-03-28T03:26:31.309Z,13.73
2019-03-28T03:28:59.834Z,13.60
2019-03-28T03:31:28.398Z,13.97
2019-03-28T03:33:56.983Z,13.53
2019-03-28T03:36:25.934Z,13.97
2019-03-28T03:38:54.514Z,14.27
2019-03-28T03:41:23.159Z,12.87
2019-03-28T03:43:51.714Z,14.27
2019-03-28T03:46:20.389Z,13.63
2019-03-28T03:48:48.978Z,14.27
2019-03-28T03:51:17.537Z,14.27
2019-03-28T03:53:46.086Z,13.10
2019-03-28T03:56:14.678Z,13.37
2019-03-28T03:58:43.402Z,13.77
2019-03-28T04:01:12.087Z,13.93
2019-03-28T04:03:40.666Z,12.90
2019-03-28T04:06:09.233Z,15.10
2019-03-28T04:08:37.864Z,12.37
2019-03-28T04:11:06.463Z,13.67
2019-03-28T04:13:35.014Z,14.97
2019-03-28T04:16:03.960Z,13.77
2019-03-28T04:18:32.798Z,10.17
2019-03-28T04:21:01.342Z,13.30
2019-03-28T04:23:30.006Z,12.23
2019-03-28T04:26:17.982Z,13.67
2019-03-28T04:28:46.529Z,14.23
2019-03-28T04:31:15.088Z,15.17
2019-03-28T04:33:43.785Z,15.07
2019-03-28T04:36:12.404Z,15.30
2019-03-28T04:38:40.944Z,15.00
2019-03-28T04:41:09.517Z,16.80
2019-03-28T04:43:38.002Z,16.07
2019-03-28T04:46:06.558Z,16.07
2019-03-28T04:48:35.241Z,16.53
2019-03-28T04:51:03.729Z,17.73
2019-03-28T04:53:32.290Z,16.40
2019-03-28T04:56:00.875Z,18.17
2019-03-28T04:58:29.362Z,18.23
2019-03-28T05:00:57.946Z,18.07
2019-03-28T05:03:26.473Z,17.67
2019-03-28T05:05:55.052Z,18.30
2019-03-28T05:08:23.536Z,18.77
2019-03-28T05:10:52.120Z,18.40
2019-03-28T05:13:20.681Z,18.90
2019-03-28T05:15:49.184Z,19.27
2019-03-28T05:18:17.698Z,19.43
2019-03-28T05:20:46.189Z,20.17
2019-03-28T05:23:14.760Z,19.83
2019-03-28T05:25:43.348Z,19.57
2019-03-28T05:28:13.464Z,20.67
2019-03-28T05:30:42.103Z,19.50
2019-03-28T05:33:10.673Z,18.60
2019-03-28T05:35:58.571Z,18.93
2019-03-28T05:38:30.234Z,19.37
2019-03-28T05:40:58.861Z,18.17
2019-03-28T05:43:27.428Z,19.90
2019-03-28T05:45:56.052Z,19.77
2019-03-28T05:48:24.532Z,19.53
2019-03-28T05:50:53.121Z,19.83
2019-03-28T05:53:21.801Z,19.60
2019-03-28T05:55:50.357Z,19.53
2019-03-28T05:58:18.913Z,19.70
2019-03-28T06:00:51.172Z,19.03
2019-03-28T06:03:17.824Z,19.87
2019-03-28T06:05:46.381Z,20.57
2019-03-28T06:08:15.057Z,20.33
2019-03-28T06:10:43.537Z,20.73
2019-03-28T06:13:12.170Z,21.87
2019-03-28T06:15:41.213Z,21.90
2019-03-28T06:18:10.012Z,22.33
2019-03-28T06:20:38.564Z,21.93
2019-03-28T06:23:07.156Z,20.07
2019-03-28T06:25:40.805Z,20.47
2019-03-28T06:28:07.500Z,20.57
2019-03-28T06:30:36.038Z,19.53
2019-03-28T06:33:04.632Z,21.40
2019-03-28T06:35:33.425Z,21.30
2019-03-28T06:38:02.051Z,19.97
2019-03-28T06:40:31.348Z,20.77
2019-03-28T06:43:19.639Z,20.40
2019-03-28T06:45:48.256Z,21.27
2019-03-28T06:48:16.819Z,20.77
2019-03-28T06:50:45.573Z,21.27
2019-03-28T06:53:14.208Z,21.20
2019-03-28T06:55:42.779Z,20.87
2019-03-28T06:58:11.440Z,22.57
2019-03-28T07:00:39.997Z,21.63
2019-03-28T07:03:08.513Z,20.90
2019-03-28T07:05:37.084Z,22.60
2019-03-28T07:08:05.637Z,23.77
2019-03-28T07:10:34.117Z,22.73
2019-03-28T07:13:02.780Z,24.10
2019-03-28T07:15:31.354Z,23.00
2019-03-28T07:17:59.977Z,22.53
2019-03-28T07:20:28.568Z,21.73
2019-03-28T07:22:57.129Z,23.30
2019-03-28T07:25:25.855Z,24.10
2019-03-28T07:27:54.561Z,19.40
2019-03-28T07:30:23.433Z,23.90
2019-03-28T07:32:51.999Z,24.00
2019-03-28T07:35:20.684Z,24.83
2019-03-28T07:37:49.314Z,26.87
2019-03-28T07:40:18.317Z,26.47
2019-03-28T07:42:46.998Z,27.00
2019-03-28T07:45:16.191Z,25.93
2019-03-28T07:47:44.765Z,27.57
2019-03-28T07:50:13.917Z,26.03
2019-03-28T07:52:42.433Z,25.87
2019-03-28T07:55:11.313Z,26.37
2019-03-28T07:57:40.050Z,25.53
2019-03-28T08:00:11.522Z,25.57
2019-03-28T08:02:40.082Z,25.27
2019-03-28T08:05:10.605Z,25.40
2019-03-28T08:07:45.243Z,25.83
2019-03-28T08:10:10.424Z,26.07
2019-03-28T08:12:38.990Z,25.77
2019-03-28T08:15:09.429Z,24.80
2019-03-28T08:17:38.087Z,27.00
2019-03-28T08:20:09.057Z,23.53
2019-03-28T08:22:37.563Z,22.70
2019-03-28T08:25:11.974Z,23.07
2019-03-28T08:27:40.162Z,25.17
2019-03-28T08:30:18.170Z,25.23
2019-03-28T08:32:42.618Z,25.17
2019-03-28T08:35:11.714Z,26.07
2019-03-28T08:37:40.924Z,26.33
2019-03-28T08:40:10.383Z,24.60
2019-03-28T08:42:38.968Z,26.20
2019-03-28T08:45:08.383Z,26.07
2019-03-28T08:47:37.017Z,25.43
2019-03-28T08:50:07.245Z,25.23
2019-03-28T08:52:35.886Z,25.10
2019-03-28T08:55:09.962Z,24.33
2019-03-28T08:57:38.071Z,24.27
2019-03-28T09:00:11.411Z,22.27
2019-03-28T09:02:40.009Z,19.53
2019-03-28T09:05:08.681Z,20.07
2019-03-28T09:07:37.328Z,21.17
2019-03-28T09:10:25.433Z,22.80
2019-03-28T09:12:54.069Z,23.30
2019-03-28T09:15:28.133Z,21.97
2019-03-28T09:17:56.725Z,20.57
2019-03-28T09:20:25.317Z,21.30
2019-03-28T09:22:53.915Z,21.93
2019-03-28T09:25:22.477Z,18.90
2019-03-28T09:27:51.749Z,15.90
2019-03-28T09:30:47.412Z,16.17
2019-03-28T09:33:05.935Z,15.77
2019-03-28T09:35:34.677Z,16.23
2019-03-28T09:38:03.440Z,17.27
2019-03-28T09:40:32.150Z,15.07
2019-03-28T09:43:00.748Z,15.07
2019-03-28T09:45:30.185Z,9.67
2019-03-28T09:47:58.986Z,13.67
2019-03-28T09:50:27.502Z,14.13
2019-03-28T09:52:56.304Z,13.93
2019-03-28T09:55:24.883Z,12.47
2019-03-28T09:57:53.464Z,12.57
2019-03-28T10:00:22.888Z,13.03
2019-03-28T10:02:51.484Z,11.30
2019-03-28T10:05:20.085Z,11.40
2019-03-28T10:07:50.209Z,9.30
2019-03-28T10:10:18.766Z,9.90
2019-03-28T10:12:47.258Z,8.77
2019-03-28T10:15:16.133Z,9.27
2019-03-28T10:17:44.837Z,9.60
2019-03-28T10:20:13.512Z,9.17
2019-03-28T10:22:42.086Z,6.80
2019-03-28T10:25:12.771Z,6.93
2019-03-28T10:27:41.389Z,6.90
2019-03-28T10:30:10.727Z,7.30
2019-03-28T10:32:39.307Z,8.03
2019-03-28T10:35:08.100Z,7.50
2019-03-28T10:37:36.668Z,7.73
2019-03-28T10:40:07.277Z,8.50
2019-03-28T10:42:35.753Z,6.93
2019-03-28T10:45:06.528Z,6.20
2019-03-28T10:47:35.172Z,5.17
2019-03-28T10:50:04.801Z,4.47
2019-03-28T10:52:33.434Z,4.90
2019-03-28T10:55:02.047Z,5.00
2019-03-28T10:57:32.086Z,5.57
2019-03-28T11:00:00.862Z,7.27
2019-03-28T11:02:29.487Z,7.10
2019-03-28T11:04:58.054Z,7.27
2019-03-28T11:07:26.655Z,6.43
2019-03-28T11:09:55.299Z,7.10
2019-03-28T11:12:23.862Z,5.60
2019-03-28T11:14:52.446Z,6.97
2019-03-28T11:17:21.790Z,7.33
2019-03-28T11:19:50.539Z,6.20
2019-03-28T11:22:20.657Z,6.10
2019-03-28T11:24:49.409Z,6.40
2019-03-28T11:27:19.633Z,6.30
2019-03-28T11:29:48.282Z,6.87
2019-03-28T11:32:16.868Z,6.57
2019-03-28T11:34:46.633Z,6.43
2019-03-28T11:37:25.845Z,6.27
2019-03-28T11:39:45.423Z,6.47
2019-03-28T11:42:14.050Z,6.23
2019-03-28T11:44:42.641Z,5.43
2019-03-28T11:47:11.222Z,5.40
2019-03-28T11:49:39.706Z,6.27
2019-03-28T11:52:08.481Z,6.07
2019-03-28T11:54:37.068Z,6.53
2019-03-28T11:57:07.401Z,7.00
2019-03-28T11:59:35.964Z,5.73
2019-03-28T12:02:19.288Z,4.30
2019-03-28T12:04:34.694Z,4.20
2019-03-28T12:07:03.256Z,4.20
2019-03-28T12:09:31.869Z,4.13
2019-03-28T12:12:00.597Z,3.30
2019-03-28T12:14:29.153Z,3.83
2019-03-28T12:16:57.678Z,3.63
2019-03-28T12:19:26.258Z,3.70
2019-03-28T12:21:54.765Z,3.90
2019-03-28T12:24:23.341Z,3.80
2019-03-28T12:26:51.913Z,3.80
2019-03-28T12:29:20.477Z,4.40
2019-03-28T12:31:49.038Z,4.93
2019-03-28T12:34:17.713Z,4.60
2019-03-28T12:36:46.383Z,4.73
2019-03-28T12:39:15.804Z,4.97
2019-03-28T12:41:44.437Z,4.47
2019-03-28T12:44:12.987Z,5.43
2019-03-28T12:46:41.550Z,5.60
2019-03-28T12:49:10.144Z,5.13
2019-03-28T12:51:38.817Z,5.20
2019-03-28T12:54:07.599Z,5.27
2019-03-28T12:56:36.158Z,5.00
2019-03-28T12:59:04.676Z,5.27
2019-03-28T13:01:33.171Z,5.87
2019-03-28T13:04:01.737Z,5.10
2019-03-28T13:06:30.425Z,4.43
2019-03-28T13:08:59.022Z,4.07
2019-03-28T13:11:27.613Z,4.30
2019-03-28T13:13:56.189Z,3.27
2019-03-28T13:16:24.676Z,4.20
2019-03-28T13:18:53.257Z,5.07
2019-03-28T13:21:21.834Z,3.97
2019-03-28T13:23:50.437Z,5.30
2019-03-28T13:26:19.002Z,4.60
2019-03-28T13:28:47.635Z,4.67
2019-03-28T13:31:16.185Z,4.97
2019-03-28T13:33:44.783Z,6.23
2019-03-28T13:36:13.402Z,6.90
2019-03-28T13:38:41.876Z,6.53
2019-03-28T13:41:29.762Z,5.07
2019-03-28T13:43:58.221Z,6.53
2019-03-28T13:46:26.688Z,5.37
2019-03-28T13:48:55.210Z,2.97
2019-03-28T13:51:23.680Z,4.50
2019-03-28T13:53:52.357Z,4.90
2019-03-28T13:56:21.920Z,3.27
2019-03-28T13:58:50.399Z,3.20
2019-03-28T14:01:19.016Z,4.10
2019-03-28T14:03:47.492Z,4.53
2019-03-28T14:06:15.967Z,4.13
2019-03-28T14:08:44.483Z,4.40
2019-03-28T14:11:12.990Z,4.57
2019-03-28T14:13:41.446Z,4.90
2019-03-28T14:16:09.984Z,5.30
2019-03-28T14:18:38.470Z,5.00
2019-03-28T14:21:06.939Z,5.47
2019-03-28T14:23:35.395Z,5.00
2019-03-28T14:26:03.880Z,5.63
2019-03-28T14:28:32.410Z,5.40
2019-03-28T14:31:20.253Z,5.23
2019-03-28T14:33:48.715Z,5.50
2019-03-28T14:36:17.232Z,4.80
2019-03-28T14:38:45.894Z,5.50
2019-03-28T14:41:14.340Z,4.93
2019-03-28T14:43:42.801Z,4.00
2019-03-28T14:46:11.529Z,4.90
2019-03-28T14:48:40.220Z,5.50
2019-03-28T14:51:08.807Z,5.60
2019-03-28T14:53:37.371Z,5.77
2019-03-28T14:56:05.983Z,4.97
2019-03-28T14:58:35.884Z,5.30
2019-03-28T15:01:05.129Z,5.43
2019-03-28T15:03:33.607Z,5.07
2019-03-28T15:06:02.067Z,4.90
2019-03-28T15:08:30.542Z,5.50
2019-03-28T15:10:59.157Z,5.20
2019-03-28T15:13:27.616Z,5.10
2019-03-28T15:15:56.096Z,5.80
2019-03-28T15:18:24.621Z,5.20
2019-03-28T15:20:54.048Z,5.20
2019-03-28T15:23:22.556Z,5.10
2019-03-28T15:25:51.122Z,4.93
2019-03-28T15:28:19.587Z,5.00
2019-03-28T15:30:48.187Z,4.33
2019-03-28T15:33:16.652Z,4.50
2019-03-28T15:35:45.137Z,5.20
2019-03-28T15:38:13.798Z,5.00
2019-03-28T15:40:42.689Z,5.20
2019-03-28T15:43:12.683Z,5.00
2019-03-28T15:45:41.211Z,5.20
2019-03-28T15:48:09.989Z,5.07
2019-03-28T15:50:38.945Z,5.50
2019-03-28T15:53:07.415Z,5.47
2019-03-28T15:55:36.146Z,5.50
2019-03-28T15:58:05.314Z,5.97
2019-03-28T16:00:33.856Z,5.60
2019-03-28T16:03:03.903Z,6.00
2019-03-28T16:05:33.177Z,5.60
2019-03-28T16:08:04.108Z,5.60
2019-03-28T16:10:37.450Z,5.67
2019-03-28T16:13:09.801Z,5.57
2019-03-28T16:15:40.912Z,5.20
2019-03-28T16:18:13.702Z,5.50
2019-03-28T16:20:45.014Z,5.93
2019-03-28T16:23:16.643Z,5.37
2019-03-28T16:25:49.867Z,5.27
2019-03-28T16:28:21.643Z,5.47
2019-03-28T16:30:52.544Z,4.97
2019-03-28T16:33:24.117Z,4.63
2019-03-28T16:35:55.894Z,5.17
2019-03-28T16:38:27.193Z,5.70
2019-03-28T16:40:57.778Z,5.10
2019-03-28T16:43:30.597Z,5.87
2019-03-28T16:46:01.878Z,5.37
2019-03-28T16:48:33.867Z,5.07
2019-03-28T16:51:05.579Z,4.80
2019-03-28T16:53:37.272Z,5.57
2019-03-28T16:56:10.041Z,5.40
2019-03-28T16:58:44.500Z,4.80
2019-03-28T17:01:16.516Z,5.60
2019-03-28T17:03:47.844Z,5.10
2019-03-28T17:06:19.235Z,5.80
2019-03-28T17:08:50.549Z,4.80
2019-03-28T17:11:23.665Z,4.37
2019-03-28T17:13:55.447Z,5.23
2019-03-28T17:16:27.327Z,5.63
2019-03-28T17:18:58.386Z,6.60
2019-03-28T17:21:29.903Z,7.00
2019-03-28T17:24:00.243Z,6.27
2019-03-28T17:26:31.703Z,7.70
2019-03-28T17:29:03.351Z,7.40
2019-03-28T17:31:36.157Z,7.73
2019-03-28T17:34:07.691Z,8.30
2019-03-28T17:36:38.572Z,7.90
2019-03-28T17:39:09.742Z,6.87
2019-03-28T17:41:41.412Z,6.93
2019-03-28T17:44:14.795Z,6.63
2019-03-28T17:46:46.455Z,7.10
2019-03-28T17:49:17.537Z,7.37
2019-03-28T17:51:49.668Z,6.90
2019-03-28T17:54:39.974Z,7.77
2019-03-28T17:57:11.847Z,8.47
2019-03-28T17:59:45.301Z,8.30
2019-03-28T18:02:17.329Z,8.00
2019-03-28T18:04:49.127Z,7.60
2019-03-28T18:07:18.985Z,7.30
2019-03-28T18:09:50.074Z,7.23
2019-03-28T18:12:21.802Z,7.30
2019-03-28T18:14:52.984Z,7.17
2019-03-28T18:17:25.774Z,6.63
2019-03-28T18:19:59.268Z,7.10
2019-03-28T18:22:30.432Z,6.40
2019-03-28T18:25:01.802Z,6.63
2019-03-28T18:27:34.191Z,6.17
2019-03-28T18:30:06.656Z,5.97
2019-03-28T18:32:39.591Z,6.67
2019-03-28T18:35:11.360Z,6.43
2019-03-28T18:37:42.459Z,7.00
2019-03-28T18:40:14.524Z,6.60
2019-03-28T18:42:45.965Z,6.23
2019-03-28T18:45:17.631Z,6.63
2019-03-28T18:47:49.128Z,6.50
2019-03-28T18:50:20.764Z,5.70
2019-03-28T18:52:52.322Z,5.90
2019-03-28T18:55:24.058Z,6.50
2019-03-28T18:57:55.406Z,6.23
2019-03-28T19:00:26.798Z,5.83
2019-03-28T19:02:58.599Z,6.20
2019-03-28T19:05:30.052Z,5.90
2019-03-28T19:08:01.788Z,6.23
2019-03-28T19:10:33.866Z,5.77
2019-03-28T19:13:06.524Z,6.23
2019-03-28T19:15:37.469Z,6.27
2019-03-28T19:18:09.519Z,6.27
2019-03-28T19:20:43.095Z,6.43
2019-03-28T19:23:15.431Z,6.80
2019-03-28T19:25:47.823Z,6.17
2019-03-28T19:28:28.622Z,7.00
2019-03-28T19:30:53.445Z,7.13
2019-03-28T19:33:24.658Z,7.70
2019-03-28T19:35:56.825Z,9.57
2019-03-28T19:38:28.572Z,9.57
2019-03-28T19:41:00.194Z,9.10
2019-03-28T19:43:32.321Z,10.20
2019-03-28T19:46:04.618Z,9.20
2019-03-28T19:48:35.835Z,9.53
2019-03-28T19:51:07.874Z,9.67
2019-03-28T19:53:39.654Z,8.53
2019-03-28T19:56:14.004Z,9.90
2019-03-28T19:58:45.865Z,10.73
2019-03-28T20:01:17.178Z,10.27
2019-03-28T20:03:52.241Z,9.90
2019-03-28T20:06:41.506Z,10.93
2019-03-28T20:09:16.492Z,10.53
2019-03-28T20:11:46.105Z,9.87
2019-03-28T20:14:17.299Z,9.90
2019-03-28T20:16:48.749Z,11.33
2019-03-28T20:19:20.894Z,10.93
2019-03-28T20:21:52.146Z,10.10
2019-03-28T20:24:23.500Z,10.47
2019-03-28T20:26:56.107Z,11.10
2019-03-28T20:29:27.228Z,10.47
2019-03-28T20:31:58.635Z,10.83
2019-03-28T20:34:30.272Z,10.17
2019-03-28T20:37:01.900Z,10.00
2019-03-28T20:39:32.996Z,10.40
2019-03-28T20:42:06.281Z,10.80
2019-03-28T20:44:37.871Z,11.67
2019-03-28T20:47:09.908Z,11.40
2019-03-28T20:49:41.959Z,11.30
2019-03-28T20:52:13.418Z,12.10
2019-03-28T20:54:44.886Z,11.67
2019-03-28T20:57:16.328Z,12.10
2019-03-28T20:59:47.792Z,13.30
2019-03-28T21:02:18.923Z,13.30
2019-03-28T21:04:50.989Z,13.10
2019-03-28T21:07:22.734Z,12.63
2019-03-28T21:09:54.054Z,12.30
2019-03-28T21:12:25.951Z,12.87
2019-03-28T21:14:57.543Z,12.90
2019-03-28T21:17:32.020Z,13.70
2019-03-28T21:20:02.645Z,12.97
2019-03-28T21:22:33.943Z,13.00
2019-03-28T21:25:06.447Z,13.50
2019-03-28T21:27:38.586Z,13.47
2019-03-28T21:30:10.743Z,13.70
2019-03-28T21:32:54.414Z,15.93
2019-03-28T21:35:15.548Z,14.30
2019-03-28T21:37:46.671Z,13.47
2019-03-28T21:40:17.857Z,13.30
2019-03-28T21:42:49.663Z,13.40
2019-03-28T21:45:21.381Z,13.87
2019-03-28T21:47:53.074Z,14.13
2019-03-28T21:50:24.856Z,13.07
2019-03-28T21:52:56.432Z,13.57
2019-03-28T21:55:30.712Z,13.73
2019-03-28T21:58:02.059Z,13.40
2019-03-28T22:00:30.648Z,13.70
2019-03-28T22:02:59.196Z,14.03
2019-03-28T22:05:28.940Z,13.60
2019-03-28T22:07:57.999Z,14.10
2019-03-28T22:10:26.514Z,14.63
2019-03-28T22:12:56.042Z,14.47
2019-03-28T22:15:24.601Z,15.00
2019-03-28T22:17:53.103Z,13.70
2019-03-28T22:20:21.735Z,14.23
2019-03-28T22:22:50.266Z,14.27
2019-03-28T22:25:18.761Z,14.67
2019-03-28T22:27:47.705Z,15.87
2019-03-28T22:30:16.753Z,15.47
2019-03-28T22:32:45.252Z,16.93
2019-03-28T22:35:13.779Z,17.23
2019-03-28T22:37:42.264Z,16.27
2019-03-28T22:40:12.106Z,16.10
2019-03-28T22:42:41.213Z,15.63
2019-03-28T22:45:12.120Z,15.23
2019-03-28T22:47:40.612Z,15.33
2019-03-28T22:50:09.335Z,14.70
2019-03-28T22:52:37.784Z,15.63
2019-03-28T22:55:08.215Z,15.13
2019-03-28T22:57:36.685Z,15.90
2019-03-28T23:00:11.504Z,15.23
2019-03-28T23:02:40.107Z,15.47
2019-03-28T23:05:09.712Z,15.20
2019-03-28T23:07:38.271Z,14.87
2019-03-28T23:10:08.533Z,14.83
2019-03-28T23:12:36.980Z,15.03
2019-03-28T23:15:10.863Z,14.73
2019-03-28T23:17:39.564Z,15.93
2019-03-28T23:20:09.449Z,16.23
2019-03-28T23:22:38.008Z,15.83
2019-03-28T23:25:07.448Z,15.63
2019-03-28T23:27:35.912Z,15.77
2019-03-28T23:30:06.933Z,15.53
2019-03-28T23:32:35.475Z,15.17
2019-03-28T23:35:04.907Z,15.23
2019-03-28T23:37:33.488Z,15.20
2019-03-28T23:40:01.959Z,15.70
2019-03-28T23:42:30.489Z,15.67
2019-03-28T23:44:58.974Z,15.83
2019-03-28T23:47:27.440Z,15.17
2019-03-28T23:49:55.902Z,16.27
2019-03-28T23:52:24.459Z,15.50
2019-03-28T23:54:53.023Z,15.50
2019-03-28T23:57:21.564Z,15.13
2019-03-28T23:59:50.122Z,15.73
